createdAt,value
2023-03-08T00:01:52.925Z,-2.06
2023-03-08T00:04:22.303Z,-2.10
2023-03-08T00:06:51.673Z,-2.09
2023-03-08T00:09:20.994Z,-2.04
2023-03-08T00:11:50.242Z,-2.10
2023-03-08T00:14:21.000Z,-2.12
2023-03-08T00:16:50.316Z,-2.13
2023-03-08T00:19:19.602Z,-2.13
2023-03-08T00:21:48.851Z,-2.17
2023-03-08T00:24:19.800Z,-2.24
2023-03-08T00:26:49.035Z,-2.17
2023-03-08T00:29:18.410Z,-2.14
2023-03-08T00:31:47.773Z,-2.13
2023-03-08T00:34:17.588Z,-2.20
2023-03-08T00:36:46.839Z,-2.27
2023-03-08T00:39:17.785Z,-2.29
2023-03-08T00:41:47.054Z,-2.36
2023-03-08T00:44:16.308Z,-2.27
2023-03-08T00:46:45.636Z,-2.31
2023-03-08T00:49:15.668Z,-2.32
2023-03-08T00:51:44.920Z,-2.25
2023-03-08T00:54:14.229Z,-2.15
2023-03-08T00:56:43.452Z,-2.24
2023-03-08T00:59:12.803Z,-2.18
2023-03-08T01:01:42.650Z,-2.25
2023-03-08T01:04:13.160Z,-2.16
2023-03-08T01:06:44.168Z,-2.07
2023-03-08T01:09:13.620Z,-2.06
2023-03-08T01:11:44.233Z,-2.02
2023-03-08T01:14:14.427Z,-2.02
2023-03-08T01:16:43.579Z,-2.02
2023-03-08T01:19:12.824Z,-2.03
2023-03-08T01:21:43.886Z,-2.05
2023-03-08T01:24:13.590Z,-2.01
2023-03-08T01:26:42.855Z,-2.03
2023-03-08T01:29:12.589Z,-2.01
2023-03-08T01:31:41.835Z,-2.01
2023-03-08T01:34:11.240Z,-2.02
2023-03-08T01:36:40.542Z,-2.04
2023-03-08T01:39:09.946Z,-2.07
2023-03-08T01:41:40.159Z,-2.07
2023-03-08T01:44:17.320Z,-2.07
2023-03-08T01:46:47.094Z,-2.08
2023-03-08T01:49:24.163Z,-2.02
2023-03-08T01:51:57.285Z,-1.95
2023-03-08T01:54:47.269Z,-1.96
2023-03-08T01:57:22.383Z,-1.89
2023-03-08T01:59:52.777Z,-1.83
2023-03-08T02:02:27.199Z,-1.73
2023-03-08T02:04:56.053Z,-1.63
2023-03-08T02:07:26.386Z,-1.61
2023-03-08T02:09:56.087Z,-1.66
2023-03-08T02:12:25.542Z,-1.68
2023-03-08T02:14:55.083Z,-1.70
2023-03-08T02:17:24.578Z,-1.68
2023-03-08T02:20:03.168Z,-1.72
2023-03-08T02:22:32.458Z,-1.72
2023-03-08T02:25:01.728Z,-1.65
2023-03-08T02:27:30.964Z,-1.56
2023-03-08T02:30:03.627Z,-1.46
2023-03-08T02:32:34.054Z,-1.43
2023-03-08T02:35:03.529Z,-1.42
2023-03-08T02:37:33.909Z,-1.44
2023-03-08T02:40:04.894Z,-1.44
2023-03-08T02:42:34.287Z,-1.39
2023-03-08T02:45:03.573Z,-1.37
2023-03-08T02:47:34.033Z,-1.36
2023-03-08T02:50:03.517Z,-1.35
2023-03-08T02:52:32.938Z,-1.33
2023-03-08T02:55:02.269Z,-1.30
2023-03-08T02:57:31.679Z,-1.28
2023-03-08T03:00:00.988Z,-1.25
2023-03-08T03:02:30.707Z,-1.25
2023-03-08T03:05:00.621Z,-1.22
2023-03-08T03:07:30.272Z,-1.25
2023-03-08T03:09:59.588Z,-1.24
2023-03-08T03:12:29.025Z,-1.29
2023-03-08T03:14:58.506Z,-1.23
2023-03-08T03:17:27.830Z,-1.17
2023-03-08T03:19:57.248Z,-1.16
2023-03-08T03:22:26.481Z,-1.17
2023-03-08T03:24:55.867Z,-1.18
2023-03-08T03:27:25.606Z,-1.15
2023-03-08T03:29:55.738Z,-1.18
2023-03-08T03:32:25.563Z,-1.14
2023-03-08T03:34:55.174Z,-1.15
2023-03-08T03:37:24.684Z,-1.13
2023-03-08T03:39:54.322Z,-1.09
2023-03-08T03:42:23.726Z,-1.07
2023-03-08T03:44:54.733Z,-1.08
2023-03-08T03:47:24.206Z,-1.07
2023-03-08T03:49:55.198Z,-1.02
2023-03-08T03:52:24.848Z,-1.04
2023-03-08T03:54:58.626Z,-1.04
2023-03-08T03:57:28.146Z,-1.06
2023-03-08T03:59:58.671Z,-1.04
2023-03-08T04:02:29.538Z,-1.08
2023-03-08T04:05:00.553Z,-1.07
2023-03-08T04:07:31.364Z,-1.06
2023-03-08T04:10:01.896Z,-1.02
2023-03-08T04:12:32.278Z,-1.01
2023-03-08T04:15:01.606Z,-1.01
2023-03-08T04:17:32.689Z,-1.00
2023-03-08T04:20:01.914Z,-0.95
2023-03-08T04:22:33.163Z,-0.92
2023-03-08T04:25:04.759Z,-0.89
2023-03-08T04:27:35.721Z,-0.91
2023-03-08T04:30:06.650Z,-0.89
2023-03-08T04:32:36.868Z,-0.85
2023-03-08T04:35:07.625Z,-0.84
2023-03-08T04:37:37.727Z,-0.85
2023-03-08T04:40:09.939Z,-0.82
2023-03-08T04:42:41.046Z,-0.77
2023-03-08T04:45:11.897Z,-0.78
2023-03-08T04:47:41.448Z,-0.81
2023-03-08T04:50:12.556Z,-0.79
2023-03-08T04:52:42.310Z,-0.77
2023-03-08T04:55:12.393Z,-0.75
2023-03-08T04:57:41.830Z,-0.70
2023-03-08T05:00:12.480Z,-0.69
2023-03-08T05:02:42.813Z,-0.66
2023-03-08T05:05:13.960Z,-0.60
2023-03-08T05:07:43.743Z,-0.63
2023-03-08T05:10:13.551Z,-0.63
2023-03-08T05:12:43.169Z,-0.59
2023-03-08T05:15:12.869Z,-0.61
2023-03-08T05:17:42.134Z,-0.58
2023-03-08T05:20:12.427Z,-0.57
2023-03-08T05:22:57.353Z,-0.58
2023-03-08T05:25:13.994Z,-0.55
2023-03-08T05:27:43.844Z,-0.55
2023-03-08T05:30:14.041Z,-0.57
2023-03-08T05:32:43.413Z,-0.58
2023-03-08T05:35:13.148Z,-0.58
2023-03-08T05:37:42.776Z,-0.61
2023-03-08T05:40:13.934Z,-0.60
2023-03-08T05:42:44.558Z,-0.59
2023-03-08T05:45:15.422Z,-0.63
2023-03-08T05:47:46.093Z,-0.65
2023-03-08T05:50:15.354Z,-0.57
2023-03-08T05:52:45.482Z,-0.61
2023-03-08T05:55:16.529Z,-0.56
2023-03-08T05:57:46.169Z,-0.57
2023-03-08T06:00:17.159Z,-0.61
2023-03-08T06:02:48.210Z,-0.56
2023-03-08T06:05:17.527Z,-0.53
2023-03-08T06:07:47.830Z,-0.59
2023-03-08T06:10:18.163Z,-0.58
2023-03-08T06:12:47.875Z,-0.50
2023-03-08T06:15:18.028Z,-0.53
2023-03-08T06:17:47.360Z,-0.50
2023-03-08T06:20:18.471Z,-0.53
2023-03-08T06:22:49.660Z,-0.50
2023-03-08T06:25:20.844Z,-0.54
2023-03-08T06:27:50.521Z,-0.54
2023-03-08T06:30:33.472Z,-0.53
2023-03-08T06:33:04.442Z,-0.51
2023-03-08T06:35:34.288Z,-0.55
2023-03-08T06:38:04.084Z,-0.54
2023-03-08T06:40:34.003Z,-0.58
2023-03-08T06:43:03.248Z,-0.65
2023-03-08T06:45:34.448Z,-0.64
2023-03-08T06:48:03.705Z,-0.66
2023-03-08T06:50:34.992Z,-0.71
2023-03-08T06:53:04.449Z,-0.70
2023-03-08T06:55:42.340Z,-0.78
2023-03-08T06:58:11.635Z,-0.79
2023-03-08T07:00:41.060Z,-0.87
2023-03-08T07:03:11.040Z,-0.92
2023-03-08T07:05:40.924Z,-0.91
2023-03-08T07:08:10.222Z,-0.89
2023-03-08T07:10:39.471Z,-0.93
2023-03-08T07:13:08.672Z,-0.90
2023-03-08T07:15:40.729Z,-0.84
2023-03-08T07:18:10.185Z,-0.87
2023-03-08T07:20:39.445Z,-0.84
2023-03-08T07:23:08.688Z,-0.86
2023-03-08T07:25:42.849Z,-0.85
2023-03-08T07:28:12.051Z,-0.83
2023-03-08T07:30:41.645Z,-0.84
2023-03-08T07:33:13.132Z,-0.80
2023-03-08T07:35:42.407Z,-0.83
2023-03-08T07:38:13.436Z,-0.83
2023-03-08T07:40:42.989Z,-0.87
2023-03-08T07:43:12.777Z,-0.88
2023-03-08T07:45:49.853Z,-0.84
2023-03-08T07:48:19.113Z,-0.87
2023-03-08T07:50:49.030Z,-0.87
2023-03-08T07:53:18.242Z,-0.84
2023-03-08T07:55:47.774Z,-0.93
2023-03-08T07:58:17.040Z,-0.95
2023-03-08T08:00:46.335Z,-0.98
2023-03-08T08:03:15.651Z,-1.02
2023-03-08T08:05:45.040Z,-1.03
2023-03-08T08:08:14.527Z,-1.05
2023-03-08T08:10:44.218Z,-1.02
2023-03-08T08:13:13.643Z,-1.08
2023-03-08T08:15:42.902Z,-1.11
2023-03-08T08:18:12.134Z,-1.15
2023-03-08T08:20:41.571Z,-1.13
2023-03-08T08:23:10.765Z,-1.12
2023-03-08T08:25:40.884Z,-1.12
2023-03-08T08:28:10.110Z,-1.15
2023-03-08T08:30:39.376Z,-1.14
2023-03-08T08:33:08.636Z,-1.16
2023-03-08T08:35:43.575Z,-1.20
2023-03-08T08:38:12.960Z,-1.17
2023-03-08T08:40:42.227Z,-1.14
2023-03-08T08:43:11.512Z,-1.20
2023-03-08T08:45:46.025Z,-1.18
2023-03-08T08:48:15.802Z,-1.27
2023-03-08T08:50:45.022Z,-1.21
2023-03-08T08:53:14.298Z,-1.24
2023-03-08T08:55:45.569Z,-1.20
2023-03-08T08:58:15.207Z,-1.19
2023-03-08T09:00:45.345Z,-1.19
2023-03-08T09:03:14.693Z,-1.16
2023-03-08T09:05:45.866Z,-1.09
2023-03-08T09:08:15.458Z,-1.04
2023-03-08T09:10:44.691Z,-1.07
2023-03-08T09:13:14.228Z,-1.06
2023-03-08T09:15:43.540Z,-1.09
2023-03-08T09:18:12.778Z,-1.06
2023-03-08T09:20:42.003Z,-1.03
2023-03-08T09:23:11.356Z,-1.11
2023-03-08T09:25:40.591Z,-1.03
2023-03-08T09:28:10.316Z,-1.00
2023-03-08T09:30:39.786Z,-0.96
2023-03-08T09:33:09.182Z,-0.92
2023-03-08T09:35:38.510Z,-0.93
2023-03-08T09:38:07.869Z,-0.80
2023-03-08T09:40:40.330Z,-0.77
2023-03-08T09:43:12.103Z,-0.57
2023-03-08T09:45:41.319Z,-0.52
2023-03-08T09:48:23.082Z,-0.52
2023-03-08T09:50:58.200Z,-0.28
2023-03-08T09:53:42.386Z,-0.13
2023-03-08T09:56:14.807Z,-0.19
2023-03-08T09:58:45.017Z,0.03
2023-03-08T10:01:17.334Z,0.16
2023-03-08T10:04:04.239Z,0.14
2023-03-08T10:07:00.079Z,0.04
2023-03-08T10:09:33.429Z,0.11
2023-03-08T10:12:12.799Z,0.14
2023-03-08T10:14:39.958Z,0.09
2023-03-08T10:17:16.620Z,0.08
2023-03-08T10:19:48.957Z,0.29
2023-03-08T10:22:19.201Z,0.41
2023-03-08T10:24:51.517Z,0.46
2023-03-08T10:27:23.198Z,0.90
2023-03-08T10:30:00.039Z,0.97
2023-03-08T10:32:30.144Z,0.88
2023-03-08T10:35:04.792Z,0.98
2023-03-08T10:37:34.717Z,0.90
2023-03-08T10:40:09.450Z,0.97
2023-03-08T10:42:38.945Z,0.90
2023-03-08T10:45:20.209Z,0.89
2023-03-08T10:47:57.635Z,0.98
2023-03-08T10:50:29.457Z,1.21
2023-03-08T10:53:13.954Z,1.41
2023-03-08T10:55:46.315Z,1.40
2023-03-08T10:58:37.262Z,1.68
2023-03-08T11:01:29.088Z,1.91
2023-03-08T11:04:07.049Z,1.39
2023-03-08T11:06:36.433Z,1.27
2023-03-08T11:09:08.816Z,1.24
2023-03-08T11:11:44.278Z,0.90
2023-03-08T11:14:13.600Z,0.93
2023-03-08T11:17:03.807Z,0.74
2023-03-08T11:19:45.082Z,0.81
2023-03-08T11:22:32.117Z,0.87
2023-03-08T11:25:19.551Z,1.14
2023-03-08T11:28:01.246Z,1.23
2023-03-08T11:30:49.823Z,1.16
2023-03-08T11:33:41.997Z,1.16
2023-03-08T11:36:33.676Z,1.32
2023-03-08T11:39:15.004Z,1.19
2023-03-08T11:41:50.087Z,1.24
2023-03-08T11:44:33.666Z,1.32
2023-03-08T11:47:43.985Z,1.56
2023-03-08T11:50:30.741Z,1.45
2023-03-08T11:53:06.159Z,1.10
2023-03-08T11:55:55.252Z,1.02
2023-03-08T11:58:30.315Z,1.06
2023-03-08T12:01:04.520Z,1.00
2023-03-08T12:03:39.402Z,1.22
2023-03-08T12:06:28.219Z,1.32
2023-03-08T12:09:10.891Z,1.30
2023-03-08T12:11:42.390Z,1.09
2023-03-08T12:14:17.781Z,1.14
2023-03-08T12:16:50.371Z,1.11
2023-03-08T12:19:28.855Z,1.22
2023-03-08T12:22:20.802Z,1.19
2023-03-08T12:25:08.500Z,1.31
2023-03-08T12:27:43.921Z,1.20
2023-03-08T12:30:16.253Z,1.29
2023-03-08T12:32:47.588Z,1.13
2023-03-08T12:35:34.784Z,1.08
2023-03-08T12:38:08.859Z,1.17
2023-03-08T12:40:47.217Z,1.20
2023-03-08T12:43:22.624Z,1.25
2023-03-08T12:46:04.368Z,1.32
2023-03-08T12:48:46.009Z,1.28
2023-03-08T12:51:18.484Z,1.03
2023-03-08T12:53:52.781Z,1.06
2023-03-08T12:56:34.135Z,0.99
2023-03-08T12:59:12.334Z,1.02
2023-03-08T13:01:47.913Z,1.17
2023-03-08T13:04:42.427Z,1.28
2023-03-08T13:07:14.728Z,1.26
2023-03-08T13:09:46.587Z,1.22
2023-03-08T13:12:21.858Z,1.18
2023-03-08T13:15:03.085Z,1.33
2023-03-08T13:17:39.364Z,1.35
2023-03-08T13:20:14.991Z,1.22
2023-03-08T13:22:50.237Z,1.32
2023-03-08T13:25:35.009Z,1.34
2023-03-08T13:28:15.928Z,1.22
2023-03-08T13:30:49.819Z,1.31
2023-03-08T13:33:24.697Z,1.35
2023-03-08T13:36:10.915Z,1.48
2023-03-08T13:38:40.242Z,1.41
2023-03-08T13:41:09.465Z,1.40
2023-03-08T13:43:39.324Z,1.50
2023-03-08T13:46:11.877Z,1.45
2023-03-08T13:48:44.530Z,1.57
2023-03-08T13:51:17.959Z,1.51
2023-03-08T13:53:48.078Z,1.54
2023-03-08T13:56:28.572Z,1.56
2023-03-08T13:58:59.041Z,1.40
2023-03-08T14:01:28.570Z,1.37
2023-03-08T14:03:59.042Z,1.47
2023-03-08T14:06:36.672Z,1.55
2023-03-08T14:09:07.329Z,1.44
2023-03-08T14:11:39.386Z,1.44
2023-03-08T14:14:11.829Z,1.43
2023-03-08T14:16:42.273Z,1.55
2023-03-08T14:19:15.121Z,1.47
2023-03-08T14:22:05.642Z,1.40
2023-03-08T14:24:36.316Z,1.28
2023-03-08T14:27:09.071Z,1.25
2023-03-08T14:29:38.421Z,1.35
2023-03-08T14:32:14.309Z,1.40
2023-03-08T14:34:49.842Z,1.40
2023-03-08T14:37:30.380Z,1.52
2023-03-08T14:40:26.724Z,1.51
2023-03-08T14:43:02.579Z,1.35
2023-03-08T14:45:34.908Z,1.35
2023-03-08T14:48:23.484Z,1.36
2023-03-08T14:50:55.023Z,1.40
2023-03-08T14:53:35.586Z,1.32
2023-03-08T14:56:13.072Z,1.32
2023-03-08T14:58:49.059Z,1.32
2023-03-08T15:01:30.008Z,1.31
2023-03-08T15:03:59.936Z,1.16
2023-03-08T15:06:35.412Z,1.20
2023-03-08T15:09:07.383Z,1.15
2023-03-08T15:11:37.058Z,1.21
2023-03-08T15:14:06.517Z,1.20
2023-03-08T15:16:35.862Z,1.15
2023-03-08T15:19:05.573Z,1.08
2023-03-08T15:21:35.359Z,1.17
2023-03-08T15:24:05.282Z,1.19
2023-03-08T15:26:34.611Z,1.16
2023-03-08T15:29:04.165Z,1.22
2023-03-08T15:31:33.498Z,1.14
2023-03-08T15:34:02.958Z,1.14
2023-03-08T15:36:33.816Z,1.06
2023-03-08T15:39:04.633Z,1.08
2023-03-08T15:41:33.865Z,1.02
2023-03-08T15:44:03.240Z,0.87
2023-03-08T15:46:32.479Z,0.82
2023-03-08T15:49:01.863Z,0.78
2023-03-08T15:51:35.969Z,0.82
2023-03-08T15:54:06.603Z,0.82
2023-03-08T15:56:35.774Z,0.89
2023-03-08T15:59:05.034Z,0.82
2023-03-08T16:01:34.302Z,0.82
2023-03-08T16:04:04.411Z,0.79
2023-03-08T16:06:33.668Z,0.76
2023-03-08T16:09:03.271Z,0.75
2023-03-08T16:11:33.186Z,0.67
2023-03-08T16:14:02.801Z,0.64
2023-03-08T16:16:44.285Z,0.67
2023-03-08T16:19:03.070Z,0.63
2023-03-08T16:21:32.262Z,0.54
2023-03-08T16:24:02.707Z,0.48
2023-03-08T16:26:31.937Z,0.49
2023-03-08T16:29:01.775Z,0.47
2023-03-08T16:31:32.654Z,0.47
2023-03-08T16:34:06.480Z,0.43
2023-03-08T16:36:35.677Z,0.43
2023-03-08T16:39:06.257Z,0.46
2023-03-08T16:41:40.250Z,0.42
2023-03-08T16:44:27.278Z,0.42
2023-03-08T16:46:56.864Z,0.42
2023-03-08T16:49:27.819Z,0.40
2023-03-08T16:51:58.143Z,0.38
2023-03-08T16:54:27.504Z,0.34
2023-03-08T16:56:56.686Z,0.30
2023-03-08T16:59:26.089Z,0.23
2023-03-08T17:01:55.259Z,0.20
2023-03-08T17:04:24.789Z,0.28
2023-03-08T17:06:54.037Z,0.24
2023-03-08T17:09:23.633Z,0.23
2023-03-08T17:11:52.850Z,0.22
2023-03-08T17:14:22.953Z,0.20
2023-03-08T17:16:52.238Z,0.15
2023-03-08T17:19:21.474Z,0.12
2023-03-08T17:21:53.895Z,0.18
2023-03-08T17:24:22.766Z,0.12
2023-03-08T17:26:53.021Z,0.14
2023-03-08T17:29:22.494Z,0.06
2023-03-08T17:31:52.584Z,0.11
2023-03-08T17:34:23.417Z,0.09
2023-03-08T17:36:53.382Z,0.09
2023-03-08T17:39:22.618Z,0.02
2023-03-08T17:41:51.816Z,0.03
2023-03-08T17:44:21.215Z,0.08
2023-03-08T17:46:50.413Z,0.08
2023-03-08T17:49:21.676Z,0.05
2023-03-08T17:51:52.047Z,-0.04
2023-03-08T17:54:21.566Z,-0.03
2023-03-08T17:56:50.956Z,-0.10
2023-03-08T17:59:20.392Z,-0.13
2023-03-08T18:01:50.167Z,-0.10
2023-03-08T18:04:21.134Z,-0.13
2023-03-08T18:06:50.488Z,-0.15
2023-03-08T18:09:20.190Z,-0.16
2023-03-08T18:11:50.159Z,-0.16
2023-03-08T18:14:24.287Z,-0.19
2023-03-08T18:16:50.918Z,-0.20
2023-03-08T18:19:20.319Z,-0.22
2023-03-08T18:21:51.186Z,-0.23
2023-03-08T18:24:20.746Z,-0.21
2023-03-08T18:26:49.963Z,-0.23
2023-03-08T18:29:19.912Z,-0.27
2023-03-08T18:31:49.138Z,-0.26
2023-03-08T18:34:18.391Z,-0.22
2023-03-08T18:36:47.647Z,-0.29
2023-03-08T18:39:16.964Z,-0.29
2023-03-08T18:41:46.674Z,-0.27
2023-03-08T18:44:16.415Z,-0.25
2023-03-08T18:46:45.911Z,-0.27
2023-03-08T18:49:15.988Z,-0.27
2023-03-08T18:51:45.368Z,-0.32
2023-03-08T18:54:18.403Z,-0.24
2023-03-08T18:56:50.194Z,-0.27
2023-03-08T18:59:19.599Z,-0.33
2023-03-08T19:01:52.326Z,-0.26
2023-03-08T19:04:22.255Z,-0.32
2023-03-08T19:06:52.195Z,-0.31
2023-03-08T19:09:22.378Z,-0.29
2023-03-08T19:11:52.863Z,-0.35
2023-03-08T19:14:22.175Z,-0.34
2023-03-08T19:16:52.159Z,-0.37
2023-03-08T19:19:21.669Z,-0.36
2023-03-08T19:21:51.021Z,-0.37
2023-03-08T19:24:21.957Z,-0.46
2023-03-08T19:26:53.499Z,-0.49
2023-03-08T19:29:25.608Z,-0.47
2023-03-08T19:32:00.759Z,-0.53
2023-03-08T19:34:33.243Z,-0.54
2023-03-08T19:37:04.443Z,-0.58
2023-03-08T19:39:35.684Z,-0.62
2023-03-08T19:42:10.923Z,-0.67
2023-03-08T19:44:40.554Z,-0.69
2023-03-08T19:47:11.493Z,-0.69
2023-03-08T19:49:41.078Z,-0.69
2023-03-08T19:52:14.045Z,-0.74
2023-03-08T19:54:44.596Z,-0.76
2023-03-08T19:57:14.002Z,-0.78
2023-03-08T19:59:43.500Z,-0.76
2023-03-08T20:02:14.243Z,-0.80
2023-03-08T20:04:44.683Z,-0.82
2023-03-08T20:07:14.012Z,-0.79
2023-03-08T20:09:43.546Z,-0.75
2023-03-08T20:12:12.872Z,-0.78
2023-03-08T20:14:42.262Z,-0.79
2023-03-08T20:17:11.706Z,-0.79
2023-03-08T20:19:41.325Z,-0.84
2023-03-08T20:22:10.794Z,-0.81
2023-03-08T20:24:40.246Z,-0.82
2023-03-08T20:27:09.538Z,-0.83
2023-03-08T20:29:39.213Z,-0.87
2023-03-08T20:32:08.590Z,-0.88
2023-03-08T20:34:38.703Z,-0.87
2023-03-08T20:37:08.077Z,-0.85
2023-03-08T20:39:37.589Z,-0.82
2023-03-08T20:42:07.214Z,-0.82
2023-03-08T20:44:36.647Z,-0.81
2023-03-08T20:47:06.253Z,-0.78
2023-03-08T20:49:35.731Z,-0.75
2023-03-08T20:52:07.003Z,-0.72
2023-03-08T20:54:36.514Z,-0.72
2023-03-08T20:57:06.227Z,-0.71
2023-03-08T20:59:35.695Z,-0.66
2023-03-08T21:02:05.197Z,-0.65
2023-03-08T21:04:35.072Z,-0.69
2023-03-08T21:07:05.863Z,-0.70
2023-03-08T21:09:35.352Z,-0.70
2023-03-08T21:12:05.469Z,-0.70
2023-03-08T21:14:34.935Z,-0.69
2023-03-08T21:17:04.591Z,-0.65
2023-03-08T21:19:34.005Z,-0.66
2023-03-08T21:22:03.574Z,-0.70
2023-03-08T21:24:33.022Z,-0.70
2023-03-08T21:27:02.741Z,-0.70
2023-03-08T21:29:32.264Z,-0.69
2023-03-08T21:32:01.876Z,-0.67
2023-03-08T21:34:31.226Z,-0.62
2023-03-08T21:37:00.924Z,-0.62
2023-03-08T21:39:30.390Z,-0.63
2023-03-08T21:42:00.675Z,-0.61
2023-03-08T21:44:31.970Z,-0.63
2023-03-08T21:47:01.116Z,-0.70
2023-03-08T21:49:33.578Z,-0.69
2023-03-08T21:52:05.589Z,-0.72
2023-03-08T21:54:35.071Z,-0.69
2023-03-08T21:57:04.440Z,-0.71
2023-03-08T21:59:33.854Z,-0.71
2023-03-08T22:02:06.067Z,-0.64
2023-03-08T22:04:36.454Z,-0.63
2023-03-08T22:07:06.921Z,-0.61
2023-03-08T22:09:36.146Z,-0.65
2023-03-08T22:12:07.189Z,-0.72
2023-03-08T22:14:36.926Z,-0.75
2023-03-08T22:17:07.358Z,-0.77
2023-03-08T22:19:36.617Z,-0.82
2023-03-08T22:22:11.120Z,-0.87
2023-03-08T22:24:45.038Z,-0.90
2023-03-08T22:27:19.556Z,-0.85
2023-03-08T22:29:50.554Z,-0.92
2023-03-08T22:32:32.092Z,-0.88
2023-03-08T22:35:01.770Z,-0.91
2023-03-08T22:37:32.360Z,-0.95
2023-03-08T22:40:09.964Z,-0.95
2023-03-08T22:42:41.670Z,-1.03
2023-03-08T22:45:16.598Z,-1.07
2023-03-08T22:47:47.392Z,-1.12
2023-03-08T22:50:18.286Z,-1.11
2023-03-08T22:52:48.155Z,-1.08
2023-03-08T22:55:17.866Z,-1.11
2023-03-08T22:57:47.165Z,-1.13
2023-03-08T23:00:17.262Z,-1.14
2023-03-08T23:02:48.120Z,-1.10
2023-03-08T23:05:20.344Z,-1.10
2023-03-08T23:07:49.677Z,-1.14
2023-03-08T23:10:19.100Z,-1.09
2023-03-08T23:12:48.837Z,-1.11
2023-03-08T23:15:18.200Z,-1.09
2023-03-08T23:17:47.741Z,-1.09
2023-03-08T23:20:18.922Z,-1.05
2023-03-08T23:22:49.322Z,-1.08
2023-03-08T23:25:19.815Z,-1.06
2023-03-08T23:27:49.137Z,-1.01
2023-03-08T23:30:18.662Z,-0.97
2023-03-08T23:32:48.451Z,-1.01
2023-03-08T23:35:17.983Z,-0.96
2023-03-08T23:37:47.566Z,-0.93
2023-03-08T23:40:16.958Z,-0.93
2023-03-08T23:42:46.374Z,-0.89
2023-03-08T23:45:15.601Z,-0.91
2023-03-08T23:47:44.997Z,-0.90
2023-03-08T23:50:14.249Z,-1.01
2023-03-08T23:52:43.492Z,-0.97
2023-03-08T23:55:13.328Z,-1.00
2023-03-08T23:57:42.744Z,-1.02
